sensor_id;sensor_type;location;lat;lon;timestamp;P1;durP1;ratioP1;P2;durP2;ratioP2
14080;SDS011;7116;52.152;5.392;2022-07-03T00:00:09;4.60;;;3.10;;
14080;SDS011;7116;52.152;5.392;2022-07-03T00:02:34;5.70;;;3.50;;
14080;SDS011;7116;52.152;5.392;2022-07-03T00:04:59;5.90;;;3.57;;
14080;SDS011;7116;52.152;5.392;2022-07-03T00:07:24;6.87;;;3.17;;
14080;SDS011;7116;52.152;5.392;2022-07-03T00:09:49;5.07;;;2.70;;
14080;SDS011;7116;52.152;5.392;2022-07-03T00:12:15;7.03;;;3.80;;
14080;SDS011;7116;52.152;5.392;2022-07-03T00:14:40;5.97;;;3.43;;
14080;SDS011;7116;52.152;5.392;2022-07-03T00:17:05;4.23;;;3.10;;
14080;SDS011;7116;52.152;5.392;2022-07-03T00:19:31;5.97;;;3.47;;
14080;SDS011;7116;52.152;5.392;2022-07-03T00:21:57;4.77;;;3.20;;
14080;SDS011;7116;52.152;5.392;2022-07-03T00:26:48;4.47;;;2.75;;
14080;SDS011;7116;52.152;5.392;2022-07-03T00:29:14;4.03;;;2.40;;
14080;SDS011;7116;52.152;5.392;2022-07-03T00:31:40;3.63;;;2.70;;
14080;SDS011;7116;52.152;5.392;2022-07-03T00:34:06;4.80;;;3.00;;
14080;SDS011;7116;52.152;5.392;2022-07-03T00:36:34;6.20;;;3.30;;
14080;SDS011;7116;52.152;5.392;2022-07-03T00:38:59;4.85;;;2.45;;
14080;SDS011;7116;52.152;5.392;2022-07-03T00:41:26;4.80;;;2.77;;
14080;SDS011;7116;52.152;5.392;2022-07-03T00:43:52;4.75;;;3.17;;
14080;SDS011;7116;52.152;5.392;2022-07-03T00:46:20;5.73;;;3.00;;
14080;SDS011;7116;52.152;5.392;2022-07-03T00:48:46;4.47;;;2.97;;
14080;SDS011;7116;52.152;5.392;2022-07-03T00:51:14;4.13;;;2.13;;
14080;SDS011;7116;52.152;5.392;2022-07-03T00:53:40;4.43;;;2.28;;
14080;SDS011;7116;52.152;5.392;2022-07-03T00:56:06;4.82;;;2.65;;
14080;SDS011;7116;52.152;5.392;2022-07-03T00:58:34;5.40;;;2.38;;
14080;SDS011;7116;52.152;5.392;2022-07-03T01:01:00;5.77;;;2.90;;
14080;SDS011;7116;52.152;5.392;2022-07-03T01:03:26;4.63;;;2.53;;
14080;SDS011;7116;52.152;5.392;2022-07-03T01:05:52;3.03;;;2.50;;
14080;SDS011;7116;52.152;5.392;2022-07-03T01:13:57;4.28;;;2.47;;
14080;SDS011;7116;52.152;5.392;2022-07-03T01:16:46;5.43;;;2.30;;
14080;SDS011;7116;52.152;5.392;2022-07-03T01:19:27;3.63;;;2.25;;
14080;SDS011;7116;52.152;5.392;2022-07-03T01:22:24;5.90;;;2.57;;
14080;SDS011;7116;52.152;5.392;2022-07-03T01:24:45;4.47;;;2.60;;
14080;SDS011;7116;52.152;5.392;2022-07-03T01:27:13;6.78;;;2.88;;
14080;SDS011;7116;52.152;5.392;2022-07-03T01:29:44;3.90;;;2.78;;
14080;SDS011;7116;52.152;5.392;2022-07-03T01:32:12;4.03;;;2.20;;
14080;SDS011;7116;52.152;5.392;2022-07-03T01:34:37;4.13;;;2.50;;
14080;SDS011;7116;52.152;5.392;2022-07-03T01:37:05;4.05;;;3.05;;
14080;SDS011;7116;52.152;5.392;2022-07-03T01:39:31;5.95;;;2.95;;
14080;SDS011;7116;52.152;5.392;2022-07-03T01:41:59;5.53;;;2.87;;
14080;SDS011;7116;52.152;5.392;2022-07-03T01:44:25;5.65;;;3.05;;
14080;SDS011;7116;52.152;5.392;2022-07-03T01:46:51;4.40;;;2.80;;
14080;SDS011;7116;52.152;5.392;2022-07-03T01:49:17;4.57;;;3.33;;
14080;SDS011;7116;52.152;5.392;2022-07-03T01:51:42;4.97;;;2.33;;
14080;SDS011;7116;52.152;5.392;2022-07-03T01:54:09;6.50;;;2.30;;
14080;SDS011;7116;52.152;5.392;2022-07-03T01:56:34;5.57;;;2.55;;
14080;SDS011;7116;52.152;5.392;2022-07-03T01:58:59;3.07;;;2.10;;
14080;SDS011;7116;52.152;5.392;2022-07-03T02:01:25;4.33;;;2.33;;
14080;SDS011;7116;52.152;5.392;2022-07-03T02:06:36;3.53;;;2.20;;
14080;SDS011;7116;52.152;5.392;2022-07-03T02:09:05;6.47;;;2.87;;
14080;SDS011;7116;52.152;5.392;2022-07-03T02:11:38;3.30;;;2.10;;
14080;SDS011;7116;52.152;5.392;2022-07-03T02:14:13;3.33;;;2.40;;
14080;SDS011;7116;52.152;5.392;2022-07-03T02:16:43;4.25;;;2.90;;
14080;SDS011;7116;52.152;5.392;2022-07-03T02:19:09;3.97;;;2.60;;
14080;SDS011;7116;52.152;5.392;2022-07-03T02:21:36;5.20;;;2.40;;
14080;SDS011;7116;52.152;5.392;2022-07-03T02:24:21;4.30;;;2.63;;
14080;SDS011;7116;52.152;5.392;2022-07-03T02:26:54;4.88;;;2.88;;
14080;SDS011;7116;52.152;5.392;2022-07-03T02:29:20;4.05;;;2.10;;
14080;SDS011;7116;52.152;5.392;2022-07-03T02:31:54;4.95;;;2.75;;
14080;SDS011;7116;52.152;5.392;2022-07-03T02:34:22;6.57;;;2.47;;
14080;SDS011;7116;52.152;5.392;2022-07-03T02:36:48;4.18;;;2.47;;
14080;SDS011;7116;52.152;5.392;2022-07-03T02:39:23;4.53;;;2.80;;
14080;SDS011;7116;52.152;5.392;2022-07-03T02:41:52;4.90;;;2.37;;
14080;SDS011;7116;52.152;5.392;2022-07-03T02:44:23;3.13;;;2.25;;
14080;SDS011;7116;52.152;5.392;2022-07-03T02:46:54;6.22;;;2.88;;
14080;SDS011;7116;52.152;5.392;2022-07-03T02:54:45;3.60;;;2.40;;
14080;SDS011;7116;52.152;5.392;2022-07-03T02:57:11;4.72;;;3.00;;
14080;SDS011;7116;52.152;5.392;2022-07-03T03:02:13;7.15;;;3.28;;
14080;SDS011;7116;52.152;5.392;2022-07-03T03:04:40;4.10;;;2.42;;
14080;SDS011;7116;52.152;5.392;2022-07-03T03:09:32;4.10;;;2.27;;
14080;SDS011;7116;52.152;5.392;2022-07-03T03:12:01;4.20;;;2.10;;
14080;SDS011;7116;52.152;5.392;2022-07-03T03:14:27;5.40;;;2.78;;
14080;SDS011;7116;52.152;5.392;2022-07-03T03:16:55;4.63;;;2.92;;
14080;SDS011;7116;52.152;5.392;2022-07-03T03:19:21;5.07;;;2.67;;
14080;SDS011;7116;52.152;5.392;2022-07-03T03:22:31;2.97;;;2.20;;
14080;SDS011;7116;52.152;5.392;2022-07-03T03:24:35;3.40;;;2.10;;
14080;SDS011;7116;52.152;5.392;2022-07-03T03:27:01;5.87;;;2.23;;
14080;SDS011;7116;52.152;5.392;2022-07-03T03:29:26;3.78;;;2.42;;
14080;SDS011;7116;52.152;5.392;2022-07-03T03:31:52;4.07;;;2.40;;
14080;SDS011;7116;52.152;5.392;2022-07-03T03:34:17;4.60;;;2.70;;
14080;SDS011;7116;52.152;5.392;2022-07-03T03:36:43;4.75;;;2.40;;
14080;SDS011;7116;52.152;5.392;2022-07-03T03:39:08;3.50;;;2.70;;
14080;SDS011;7116;52.152;5.392;2022-07-03T03:41:34;3.73;;;2.20;;
14080;SDS011;7116;52.152;5.392;2022-07-03T03:43:59;4.85;;;3.22;;
14080;SDS011;7116;52.152;5.392;2022-07-03T03:46:24;4.10;;;2.90;;
14080;SDS011;7116;52.152;5.392;2022-07-03T03:48:50;6.53;;;2.57;;
14080;SDS011;7116;52.152;5.392;2022-07-03T03:51:18;6.97;;;3.33;;
14080;SDS011;7116;52.152;5.392;2022-07-03T03:53:43;4.63;;;2.28;;
14080;SDS011;7116;52.152;5.392;2022-07-03T03:56:10;3.50;;;2.23;;
14080;SDS011;7116;52.152;5.392;2022-07-03T03:58:36;4.53;;;2.70;;
14080;SDS011;7116;52.152;5.392;2022-07-03T04:01:02;3.92;;;2.40;;
14080;SDS011;7116;52.152;5.392;2022-07-03T04:03:28;5.38;;;2.50;;
14080;SDS011;7116;52.152;5.392;2022-07-03T04:05:54;6.50;;;2.47;;
14080;SDS011;7116;52.152;5.392;2022-07-03T04:08:19;6.10;;;2.73;;
14080;SDS011;7116;52.152;5.392;2022-07-03T04:10:45;4.97;;;2.70;;
14080;SDS011;7116;52.152;5.392;2022-07-03T04:13:10;4.27;;;2.80;;
14080;SDS011;7116;52.152;5.392;2022-07-03T04:15:35;4.33;;;2.70;;
14080;SDS011;7116;52.152;5.392;2022-07-03T04:18:00;4.10;;;2.37;;
14080;SDS011;7116;52.152;5.392;2022-07-03T04:20:26;5.50;;;2.80;;
14080;SDS011;7116;52.152;5.392;2022-07-03T04:22:51;4.27;;;2.50;;
14080;SDS011;7116;52.152;5.392;2022-07-03T04:25:16;3.23;;;2.33;;
14080;SDS011;7116;52.152;5.392;2022-07-03T04:27:42;6.07;;;2.50;;
14080;SDS011;7116;52.152;5.392;2022-07-03T04:30:07;5.63;;;2.70;;
14080;SDS011;7116;52.152;5.392;2022-07-03T04:32:35;3.55;;;2.88;;
14080;SDS011;7116;52.152;5.392;2022-07-03T04:35:00;3.33;;;2.17;;
14080;SDS011;7116;52.152;5.392;2022-07-03T04:37:25;3.47;;;2.63;;
14080;SDS011;7116;52.152;5.392;2022-07-03T04:39:51;6.47;;;2.47;;
14080;SDS011;7116;52.152;5.392;2022-07-03T04:42:16;3.20;;;2.10;;
14080;SDS011;7116;52.152;5.392;2022-07-03T04:44:41;5.80;;;3.25;;
14080;SDS011;7116;52.152;5.392;2022-07-03T04:47:06;5.40;;;2.65;;
14080;SDS011;7116;52.152;5.392;2022-07-03T04:49:31;3.17;;;2.80;;
14080;SDS011;7116;52.152;5.392;2022-07-03T04:51:57;3.75;;;2.60;;
14080;SDS011;7116;52.152;5.392;2022-07-03T04:54:22;3.40;;;2.27;;
14080;SDS011;7116;52.152;5.392;2022-07-03T04:56:47;4.00;;;2.47;;
14080;SDS011;7116;52.152;5.392;2022-07-03T04:59:12;2.50;;;1.90;;
14080;SDS011;7116;52.152;5.392;2022-07-03T05:01:37;4.37;;;2.10;;
14080;SDS011;7116;52.152;5.392;2022-07-03T05:04:03;3.83;;;2.23;;
14080;SDS011;7116;52.152;5.392;2022-07-03T05:06:28;6.33;;;2.00;;
14080;SDS011;7116;52.152;5.392;2022-07-03T05:08:55;3.43;;;1.90;;
14080;SDS011;7116;52.152;5.392;2022-07-03T05:11:20;3.58;;;2.03;;
14080;SDS011;7116;52.152;5.392;2022-07-03T05:13:46;4.83;;;2.17;;
14080;SDS011;7116;52.152;5.392;2022-07-03T05:16:11;4.93;;;1.70;;
14080;SDS011;7116;52.152;5.392;2022-07-03T05:18:36;2.67;;;1.70;;
14080;SDS011;7116;52.152;5.392;2022-07-03T05:21:01;7.13;;;2.00;;
14080;SDS011;7116;52.152;5.392;2022-07-03T05:23:27;3.73;;;1.70;;
14080;SDS011;7116;52.152;5.392;2022-07-03T05:25:52;5.57;;;1.90;;
14080;SDS011;7116;52.152;5.392;2022-07-03T05:28:17;3.80;;;2.03;;
14080;SDS011;7116;52.152;5.392;2022-07-03T05:30:43;6.20;;;2.03;;
14080;SDS011;7116;52.152;5.392;2022-07-03T05:33:08;3.47;;;1.77;;
14080;SDS011;7116;52.152;5.392;2022-07-03T05:35:33;5.80;;;1.80;;
14080;SDS011;7116;52.152;5.392;2022-07-03T05:37:58;4.43;;;1.80;;
14080;SDS011;7116;52.152;5.392;2022-07-03T05:40:23;3.27;;;1.63;;
14080;SDS011;7116;52.152;5.392;2022-07-03T05:42:48;3.20;;;1.60;;
14080;SDS011;7116;52.152;5.392;2022-07-03T05:45:14;2.20;;;1.47;;
14080;SDS011;7116;52.152;5.392;2022-07-03T05:47:39;4.40;;;1.60;;
14080;SDS011;7116;52.152;5.392;2022-07-03T05:50:04;6.80;;;2.07;;
14080;SDS011;7116;52.152;5.392;2022-07-03T05:52:30;3.23;;;1.77;;
14080;SDS011;7116;52.152;5.392;2022-07-03T05:54:55;5.87;;;1.80;;
14080;SDS011;7116;52.152;5.392;2022-07-03T05:57:20;4.50;;;2.00;;
14080;SDS011;7116;52.152;5.392;2022-07-03T05:59:46;6.43;;;2.05;;
14080;SDS011;7116;52.152;5.392;2022-07-03T06:02:11;4.70;;;1.73;;
14080;SDS011;7116;52.152;5.392;2022-07-03T06:04:36;6.80;;;1.83;;
14080;SDS011;7116;52.152;5.392;2022-07-03T06:07:02;4.73;;;2.10;;
14080;SDS011;7116;52.152;5.392;2022-07-03T06:09:27;8.13;;;1.97;;
14080;SDS011;7116;52.152;5.392;2022-07-03T06:11:52;3.37;;;1.70;;
14080;SDS011;7116;52.152;5.392;2022-07-03T06:14:17;3.87;;;1.73;;
14080;SDS011;7116;52.152;5.392;2022-07-03T06:16:42;3.43;;;1.73;;
14080;SDS011;7116;52.152;5.392;2022-07-03T06:19:08;2.87;;;1.60;;
14080;SDS011;7116;52.152;5.392;2022-07-03T06:21:33;4.43;;;1.77;;
14080;SDS011;7116;52.152;5.392;2022-07-03T06:23:58;3.97;;;1.83;;
14080;SDS011;7116;52.152;5.392;2022-07-03T06:26:24;3.50;;;1.63;;
14080;SDS011;7116;52.152;5.392;2022-07-03T06:28:49;5.57;;;2.00;;
14080;SDS011;7116;52.152;5.392;2022-07-03T06:31:15;4.88;;;1.88;;
14080;SDS011;7116;52.152;5.392;2022-07-03T06:33:41;3.60;;;1.60;;
14080;SDS011;7116;52.152;5.392;2022-07-03T06:36:06;4.93;;;1.70;;
14080;SDS011;7116;52.152;5.392;2022-07-03T06:38:31;3.10;;;1.57;;
14080;SDS011;7116;52.152;5.392;2022-07-03T06:40:56;3.43;;;1.60;;
14080;SDS011;7116;52.152;5.392;2022-07-03T06:43:21;4.07;;;1.63;;
14080;SDS011;7116;52.152;5.392;2022-07-03T06:45:47;6.67;;;1.93;;
14080;SDS011;7116;52.152;5.392;2022-07-03T06:48:12;4.47;;;1.70;;
14080;SDS011;7116;52.152;5.392;2022-07-03T06:50:37;4.57;;;1.57;;
14080;SDS011;7116;52.152;5.392;2022-07-03T06:53:02;4.30;;;1.53;;
14080;SDS011;7116;52.152;5.392;2022-07-03T06:55:27;3.67;;;1.80;;
14080;SDS011;7116;52.152;5.392;2022-07-03T06:57:53;3.87;;;1.30;;
14080;SDS011;7116;52.152;5.392;2022-07-03T07:00:18;5.03;;;1.20;;
14080;SDS011;7116;52.152;5.392;2022-07-03T07:02:43;3.73;;;1.67;;
14080;SDS011;7116;52.152;5.392;2022-07-03T07:05:08;4.17;;;1.57;;
14080;SDS011;7116;52.152;5.392;2022-07-03T07:07:33;6.43;;;1.80;;
14080;SDS011;7116;52.152;5.392;2022-07-03T07:09:59;12.30;;;1.80;;
14080;SDS011;7116;52.152;5.392;2022-07-03T07:12:24;4.33;;;1.70;;
14080;SDS011;7116;52.152;5.392;2022-07-03T07:14:50;4.38;;;1.63;;
14080;SDS011;7116;52.152;5.392;2022-07-03T07:17:15;4.90;;;1.43;;
14080;SDS011;7116;52.152;5.392;2022-07-03T07:19:40;4.63;;;1.43;;
14080;SDS011;7116;52.152;5.392;2022-07-03T07:22:06;5.53;;;2.07;;
14080;SDS011;7116;52.152;5.392;2022-07-03T07:24:31;4.27;;;1.53;;
14080;SDS011;7116;52.152;5.392;2022-07-03T07:26:57;3.00;;;1.47;;
14080;SDS011;7116;52.152;5.392;2022-07-03T07:29:22;5.93;;;2.03;;
14080;SDS011;7116;52.152;5.392;2022-07-03T07:31:47;4.03;;;1.97;;
14080;SDS011;7116;52.152;5.392;2022-07-03T07:34:12;6.73;;;1.90;;
14080;SDS011;7116;52.152;5.392;2022-07-03T07:36:38;5.47;;;2.47;;
14080;SDS011;7116;52.152;5.392;2022-07-03T07:39:03;5.80;;;1.63;;
14080;SDS011;7116;52.152;5.392;2022-07-03T07:41:28;4.23;;;1.77;;
14080;SDS011;7116;52.152;5.392;2022-07-03T07:43:53;2.73;;;1.30;;
14080;SDS011;7116;52.152;5.392;2022-07-03T07:46:18;6.37;;;1.77;;
14080;SDS011;7116;52.152;5.392;2022-07-03T07:48:44;4.23;;;1.43;;
14080;SDS011;7116;52.152;5.392;2022-07-03T07:51:13;2.57;;;1.27;;
14080;SDS011;7116;52.152;5.392;2022-07-03T07:53:38;4.47;;;1.67;;
14080;SDS011;7116;52.152;5.392;2022-07-03T07:56:03;3.80;;;1.80;;
14080;SDS011;7116;52.152;5.392;2022-07-03T07:58:28;3.67;;;1.70;;
14080;SDS011;7116;52.152;5.392;2022-07-03T08:00:54;3.77;;;1.40;;
14080;SDS011;7116;52.152;5.392;2022-07-03T08:03:37;3.93;;;1.50;;
14080;SDS011;7116;52.152;5.392;2022-07-03T08:06:21;3.95;;;1.33;;
14080;SDS011;7116;52.152;5.392;2022-07-03T08:08:46;3.93;;;1.40;;
14080;SDS011;7116;52.152;5.392;2022-07-03T08:11:12;4.10;;;1.53;;
14080;SDS011;7116;52.152;5.392;2022-07-03T08:13:37;3.37;;;1.33;;
14080;SDS011;7116;52.152;5.392;2022-07-03T08:16:02;5.20;;;1.23;;
14080;SDS011;7116;52.152;5.392;2022-07-03T08:18:27;3.63;;;1.43;;
14080;SDS011;7116;52.152;5.392;2022-07-03T08:20:53;4.07;;;1.70;;
14080;SDS011;7116;52.152;5.392;2022-07-03T08:23:18;3.63;;;1.60;;
14080;SDS011;7116;52.152;5.392;2022-07-03T08:25:43;3.60;;;1.67;;
14080;SDS011;7116;52.152;5.392;2022-07-03T08:28:08;5.50;;;1.63;;
14080;SDS011;7116;52.152;5.392;2022-07-03T08:30:34;4.40;;;1.50;;
14080;SDS011;7116;52.152;5.392;2022-07-03T08:32:59;3.00;;;1.37;;
14080;SDS011;7116;52.152;5.392;2022-07-03T08:35:24;2.83;;;1.30;;
14080;SDS011;7116;52.152;5.392;2022-07-03T08:37:50;4.43;;;1.50;;
14080;SDS011;7116;52.152;5.392;2022-07-03T08:40:15;3.63;;;1.37;;
14080;SDS011;7116;52.152;5.392;2022-07-03T08:43:02;3.78;;;1.40;;
14080;SDS011;7116;52.152;5.392;2022-07-03T08:45:27;4.68;;;1.20;;
14080;SDS011;7116;52.152;5.392;2022-07-03T08:47:54;3.93;;;1.43;;
14080;SDS011;7116;52.152;5.392;2022-07-03T08:50:20;2.97;;;1.40;;
14080;SDS011;7116;52.152;5.392;2022-07-03T08:52:46;5.70;;;1.47;;
14080;SDS011;7116;52.152;5.392;2022-07-03T08:55:12;3.90;;;1.50;;
14080;SDS011;7116;52.152;5.392;2022-07-03T08:57:39;2.83;;;1.33;;
14080;SDS011;7116;52.152;5.392;2022-07-03T09:00:06;3.95;;;1.30;;
14080;SDS011;7116;52.152;5.392;2022-07-03T09:02:32;4.03;;;1.52;;
14080;SDS011;7116;52.152;5.392;2022-07-03T09:05:01;3.87;;;1.47;;
14080;SDS011;7116;52.152;5.392;2022-07-03T09:07:27;1.77;;;1.25;;
14080;SDS011;7116;52.152;5.392;2022-07-03T09:09:52;2.53;;;1.40;;
14080;SDS011;7116;52.152;5.392;2022-07-03T09:12:18;3.33;;;1.50;;
14080;SDS011;7116;52.152;5.392;2022-07-03T09:14:44;3.57;;;1.40;;
14080;SDS011;7116;52.152;5.392;2022-07-03T09:17:09;2.47;;;1.27;;
14080;SDS011;7116;52.152;5.392;2022-07-03T09:19:42;2.45;;;1.20;;
14080;SDS011;7116;52.152;5.392;2022-07-03T09:22:16;2.53;;;1.23;;
14080;SDS011;7116;52.152;5.392;2022-07-03T09:24:43;2.50;;;1.60;;
14080;SDS011;7116;52.152;5.392;2022-07-03T09:27:10;4.30;;;1.80;;
14080;SDS011;7116;52.152;5.392;2022-07-03T09:29:43;4.82;;;1.50;;
14080;SDS011;7116;52.152;5.392;2022-07-03T09:32:15;4.37;;;2.23;;
14080;SDS011;7116;52.152;5.392;2022-07-03T09:34:40;4.50;;;1.40;;
14080;SDS011;7116;52.152;5.392;2022-07-03T09:37:05;3.43;;;1.80;;
14080;SDS011;7116;52.152;5.392;2022-07-03T09:39:30;2.20;;;1.20;;
14080;SDS011;7116;52.152;5.392;2022-07-03T09:41:57;4.05;;;1.60;;
14080;SDS011;7116;52.152;5.392;2022-07-03T09:55:21;3.17;;;1.50;;
14080;SDS011;7116;52.152;5.392;2022-07-03T10:00:12;5.37;;;2.00;;
14080;SDS011;7116;52.152;5.392;2022-07-03T10:02:51;4.07;;;1.83;;
14080;SDS011;7116;52.152;5.392;2022-07-03T10:05:16;5.15;;;1.42;;
14080;SDS011;7116;52.152;5.392;2022-07-03T10:07:49;3.97;;;1.93;;
14080;SDS011;7116;52.152;5.392;2022-07-03T10:10:14;3.35;;;1.48;;
14080;SDS011;7116;52.152;5.392;2022-07-03T10:12:43;3.57;;;1.40;;
14080;SDS011;7116;52.152;5.392;2022-07-03T10:15:09;3.33;;;1.40;;
14080;SDS011;7116;52.152;5.392;2022-07-03T10:17:35;4.80;;;2.10;;
14080;SDS011;7116;52.152;5.392;2022-07-03T10:20:00;2.60;;;1.47;;
14080;SDS011;7116;52.152;5.392;2022-07-03T10:22:26;1.80;;;1.25;;
14080;SDS011;7116;52.152;5.392;2022-07-03T10:24:55;2.87;;;1.80;;
14080;SDS011;7116;52.152;5.392;2022-07-03T10:27:21;2.65;;;1.70;;
14080;SDS011;7116;52.152;5.392;2022-07-03T10:29:47;3.20;;;1.58;;
14080;SDS011;7116;52.152;5.392;2022-07-03T10:32:13;2.85;;;1.50;;
14080;SDS011;7116;52.152;5.392;2022-07-03T10:34:48;2.93;;;1.40;;
14080;SDS011;7116;52.152;5.392;2022-07-03T10:37:17;3.67;;;1.80;;
14080;SDS011;7116;52.152;5.392;2022-07-03T10:39:47;9.77;;;5.20;;
14080;SDS011;7116;52.152;5.392;2022-07-03T10:42:19;6.82;;;3.67;;
14080;SDS011;7116;52.152;5.392;2022-07-03T10:45:09;7.43;;;3.78;;
14080;SDS011;7116;52.152;5.392;2022-07-03T10:50:06;3.83;;;1.75;;
14080;SDS011;7116;52.152;5.392;2022-07-03T10:52:32;5.28;;;1.98;;
14080;SDS011;7116;52.152;5.392;2022-07-03T10:54:57;3.37;;;2.00;;
14080;SDS011;7116;52.152;5.392;2022-07-03T11:00:33;7.38;;;2.72;;
14080;SDS011;7116;52.152;5.392;2022-07-03T11:03:51;7.00;;;2.80;;
14080;SDS011;7116;52.152;5.392;2022-07-03T11:06:18;8.48;;;2.83;;
14080;SDS011;7116;52.152;5.392;2022-07-03T11:09:00;6.95;;;3.55;;
14080;SDS011;7116;52.152;5.392;2022-07-03T11:11:41;4.10;;;1.90;;
14080;SDS011;7116;52.152;5.392;2022-07-03T11:14:20;5.25;;;2.55;;
14080;SDS011;7116;52.152;5.392;2022-07-03T11:16:45;4.53;;;2.13;;
14080;SDS011;7116;52.152;5.392;2022-07-03T11:19:11;4.27;;;1.90;;
14080;SDS011;7116;52.152;5.392;2022-07-03T11:21:36;2.87;;;2.00;;
14080;SDS011;7116;52.152;5.392;2022-07-03T11:26:38;2.70;;;1.52;;
14080;SDS011;7116;52.152;5.392;2022-07-03T11:29:24;5.63;;;2.13;;
14080;SDS011;7116;52.152;5.392;2022-07-03T11:31:50;6.38;;;2.00;;
14080;SDS011;7116;52.152;5.392;2022-07-03T11:34:18;4.77;;;1.80;;
14080;SDS011;7116;52.152;5.392;2022-07-03T11:36:44;6.72;;;1.83;;
14080;SDS011;7116;52.152;5.392;2022-07-03T11:39:09;4.97;;;1.97;;
14080;SDS011;7116;52.152;5.392;2022-07-03T11:44:03;4.88;;;2.03;;
14080;SDS011;7116;52.152;5.392;2022-07-03T11:46:32;2.60;;;1.60;;
14080;SDS011;7116;52.152;5.392;2022-07-03T11:49:11;4.60;;;2.13;;
14080;SDS011;7116;52.152;5.392;2022-07-03T11:51:37;3.38;;;2.20;;
14080;SDS011;7116;52.152;5.392;2022-07-03T11:54:02;3.47;;;2.00;;
14080;SDS011;7116;52.152;5.392;2022-07-03T11:56:28;5.70;;;1.97;;
14080;SDS011;7116;52.152;5.392;2022-07-03T11:58:54;3.35;;;1.63;;
14080;SDS011;7116;52.152;5.392;2022-07-03T12:04:13;3.57;;;1.60;;
14080;SDS011;7116;52.152;5.392;2022-07-03T12:11:52;3.97;;;1.73;;
14080;SDS011;7116;52.152;5.392;2022-07-03T12:14:17;4.40;;;2.00;;
14080;SDS011;7116;52.152;5.392;2022-07-03T12:16:42;3.73;;;1.80;;
14080;SDS011;7116;52.152;5.392;2022-07-03T12:19:07;9.85;;;1.90;;
14080;SDS011;7116;52.152;5.392;2022-07-03T12:21:37;3.17;;;1.33;;
14080;SDS011;7116;52.152;5.392;2022-07-03T12:24:08;3.53;;;1.87;;
14080;SDS011;7116;52.152;5.392;2022-07-03T12:26:34;4.88;;;1.75;;
14080;SDS011;7116;52.152;5.392;2022-07-03T12:29:00;7.05;;;1.80;;
14080;SDS011;7116;52.152;5.392;2022-07-03T12:31:26;7.85;;;1.80;;
14080;SDS011;7116;52.152;5.392;2022-07-03T12:33:52;2.63;;;1.53;;
14080;SDS011;7116;52.152;5.392;2022-07-03T12:36:17;4.53;;;1.70;;
14080;SDS011;7116;52.152;5.392;2022-07-03T12:38:46;4.03;;;1.90;;
14080;SDS011;7116;52.152;5.392;2022-07-03T12:41:11;6.60;;;2.22;;
14080;SDS011;7116;52.152;5.392;2022-07-03T12:43:40;3.47;;;1.33;;
14080;SDS011;7116;52.152;5.392;2022-07-03T12:51:11;3.60;;;1.73;;
14080;SDS011;7116;52.152;5.392;2022-07-03T12:53:37;3.20;;;2.00;;
14080;SDS011;7116;52.152;5.392;2022-07-03T12:56:05;2.30;;;1.30;;
14080;SDS011;7116;52.152;5.392;2022-07-03T12:58:33;2.58;;;1.75;;
14080;SDS011;7116;52.152;5.392;2022-07-03T13:01:34;3.17;;;1.92;;
14080;SDS011;7116;52.152;5.392;2022-07-03T13:04:01;4.32;;;1.45;;
14080;SDS011;7116;52.152;5.392;2022-07-03T13:06:26;4.07;;;2.30;;
14080;SDS011;7116;52.152;5.392;2022-07-03T13:08:53;4.77;;;1.83;;
14080;SDS011;7116;52.152;5.392;2022-07-03T13:11:25;1.98;;;1.30;;
14080;SDS011;7116;52.152;5.392;2022-07-03T13:13:50;2.00;;;1.30;;
14080;SDS011;7116;52.152;5.392;2022-07-03T13:16:22;2.60;;;1.43;;
14080;SDS011;7116;52.152;5.392;2022-07-03T13:19:00;2.97;;;1.37;;
14080;SDS011;7116;52.152;5.392;2022-07-03T13:21:25;3.70;;;1.52;;
14080;SDS011;7116;52.152;5.392;2022-07-03T13:23:51;2.80;;;1.30;;
14080;SDS011;7116;52.152;5.392;2022-07-03T13:26:16;4.47;;;2.10;;
14080;SDS011;7116;52.152;5.392;2022-07-03T13:28:41;4.03;;;1.70;;
14080;SDS011;7116;52.152;5.392;2022-07-03T13:31:06;2.90;;;1.50;;
14080;SDS011;7116;52.152;5.392;2022-07-03T13:33:31;2.73;;;1.37;;
14080;SDS011;7116;52.152;5.392;2022-07-03T13:35:57;3.73;;;1.43;;
14080;SDS011;7116;52.152;5.392;2022-07-03T13:38:22;3.77;;;1.43;;
14080;SDS011;7116;52.152;5.392;2022-07-03T13:40:47;4.30;;;1.70;;
14080;SDS011;7116;52.152;5.392;2022-07-03T13:43:13;3.60;;;1.50;;
14080;SDS011;7116;52.152;5.392;2022-07-03T13:45:38;4.90;;;1.80;;
14080;SDS011;7116;52.152;5.392;2022-07-03T13:48:03;3.30;;;1.93;;
14080;SDS011;7116;52.152;5.392;2022-07-03T13:50:28;4.27;;;1.63;;
14080;SDS011;7116;52.152;5.392;2022-07-03T13:52:54;3.57;;;1.83;;
14080;SDS011;7116;52.152;5.392;2022-07-03T13:55:19;3.47;;;2.13;;
14080;SDS011;7116;52.152;5.392;2022-07-03T13:57:44;2.80;;;1.93;;
14080;SDS011;7116;52.152;5.392;2022-07-03T14:00:09;3.97;;;1.90;;
14080;SDS011;7116;52.152;5.392;2022-07-03T14:02:35;6.07;;;1.52;;
14080;SDS011;7116;52.152;5.392;2022-07-03T14:05:01;2.57;;;1.87;;
14080;SDS011;7116;52.152;5.392;2022-07-03T14:07:26;6.70;;;1.60;;
14080;SDS011;7116;52.152;5.392;2022-07-03T14:09:51;3.43;;;2.23;;
14080;SDS011;7116;52.152;5.392;2022-07-03T14:12:16;3.67;;;1.70;;
14080;SDS011;7116;52.152;5.392;2022-07-03T14:14:41;3.67;;;1.40;;
14080;SDS011;7116;52.152;5.392;2022-07-03T14:17:06;5.43;;;1.70;;
14080;SDS011;7116;52.152;5.392;2022-07-03T14:19:32;2.80;;;1.73;;
14080;SDS011;7116;52.152;5.392;2022-07-03T14:21:57;3.00;;;2.10;;
14080;SDS011;7116;52.152;5.392;2022-07-03T14:24:22;3.90;;;1.80;;
14080;SDS011;7116;52.152;5.392;2022-07-03T14:26:47;6.00;;;1.97;;
14080;SDS011;7116;52.152;5.392;2022-07-03T14:29:31;3.30;;;1.60;;
14080;SDS011;7116;52.152;5.392;2022-07-03T14:32:15;4.38;;;1.55;;
14080;SDS011;7116;52.152;5.392;2022-07-03T14:34:57;3.28;;;1.63;;
14080;SDS011;7116;52.152;5.392;2022-07-03T14:37:22;5.03;;;1.70;;
14080;SDS011;7116;52.152;5.392;2022-07-03T14:39:47;2.40;;;1.47;;
14080;SDS011;7116;52.152;5.392;2022-07-03T14:42:13;5.20;;;2.07;;
14080;SDS011;7116;52.152;5.392;2022-07-03T14:44:38;3.87;;;1.77;;
14080;SDS011;7116;52.152;5.392;2022-07-03T14:47:03;4.27;;;1.70;;
14080;SDS011;7116;52.152;5.392;2022-07-03T14:49:29;6.40;;;1.80;;
14080;SDS011;7116;52.152;5.392;2022-07-03T14:51:54;4.33;;;1.20;;
14080;SDS011;7116;52.152;5.392;2022-07-03T14:54:19;3.80;;;2.05;;
14080;SDS011;7116;52.152;5.392;2022-07-03T14:56:51;3.67;;;1.30;;
14080;SDS011;7116;52.152;5.392;2022-07-03T14:59:17;3.65;;;1.95;;
14080;SDS011;7116;52.152;5.392;2022-07-03T15:01:45;6.57;;;1.70;;
14080;SDS011;7116;52.152;5.392;2022-07-03T15:04:19;3.35;;;1.92;;
14080;SDS011;7116;52.152;5.392;2022-07-03T15:06:44;3.28;;;2.03;;
14080;SDS011;7116;52.152;5.392;2022-07-03T15:09:11;6.80;;;2.33;;
14080;SDS011;7116;52.152;5.392;2022-07-03T15:11:51;4.65;;;2.13;;
14080;SDS011;7116;52.152;5.392;2022-07-03T15:14:36;4.17;;;2.60;;
14080;SDS011;7116;52.152;5.392;2022-07-03T15:17:04;4.22;;;2.40;;
14080;SDS011;7116;52.152;5.392;2022-07-03T15:19:30;4.20;;;2.05;;
14080;SDS011;7116;52.152;5.392;2022-07-03T15:21:58;3.33;;;2.55;;
14080;SDS011;7116;52.152;5.392;2022-07-03T15:24:23;6.03;;;1.93;;
14080;SDS011;7116;52.152;5.392;2022-07-03T15:26:52;5.13;;;2.17;;
14080;SDS011;7116;52.152;5.392;2022-07-03T15:29:18;3.38;;;1.80;;
14080;SDS011;7116;52.152;5.392;2022-07-03T15:31:44;5.20;;;1.97;;
14080;SDS011;7116;52.152;5.392;2022-07-03T15:34:10;4.53;;;2.13;;
14080;SDS011;7116;52.152;5.392;2022-07-03T15:39:07;4.10;;;1.67;;
14080;SDS011;7116;52.152;5.392;2022-07-03T15:41:57;2.77;;;1.40;;
14080;SDS011;7116;52.152;5.392;2022-07-03T15:44:26;5.70;;;1.98;;
14080;SDS011;7116;52.152;5.392;2022-07-03T15:49:24;3.92;;;1.88;;
14080;SDS011;7116;52.152;5.392;2022-07-03T15:57:07;3.60;;;1.88;;
14080;SDS011;7116;52.152;5.392;2022-07-03T15:59:35;5.18;;;2.08;;
14080;SDS011;7116;52.152;5.392;2022-07-03T16:02:04;3.78;;;1.70;;
14080;SDS011;7116;52.152;5.392;2022-07-03T16:07:42;3.65;;;1.60;;
14080;SDS011;7116;52.152;5.392;2022-07-03T16:10:09;4.97;;;1.58;;
14080;SDS011;7116;52.152;5.392;2022-07-03T16:12:35;2.22;;;1.42;;